Time;durP1;ratioP1;P1;durP2;ratioP2;P2;SDS_P1;SDS_P2;PMS_P1;PMS_P2;Temp;Humidity;BMP_temperature;BMP_pressure;BME280_temperature;BME280_humidity;BME280_pressure;Samples;Min_cycle;Max_cycle;Signal;HPM_P1;HPM_P2
2024/03/31 00:00:03;0.00;0.00;0.62;0.00;0.00;0.62;21.13;16.00;;;24.10;26.50;;;;;;2231767;62;20459;-64
2024/03/31 00:02:39;0.00;0.00;0.62;0.00;0.00;0.62;19.70;16.03;;;24.10;26.50;;;;;;2232215;62;20364;-67
2024/03/31 00:05:06;0.00;0.00;0.62;0.00;0.00;0.62;21.57;15.60;;;24.10;26.50;;;;;;2232220;62;20926;-67
2024/03/31 00:07:33;0.00;0.00;0.62;0.00;0.00;0.62;22.50;17.63;;;24.10;26.60;;;;;;2231500;62;20450;-65
2024/03/31 00:09:59;0.00;0.00;0.62;0.00;0.00;0.62;19.87;16.67;;;24.10;26.50;;;;;;2232323;62;20364;-65
2024/03/31 00:12:26;0.00;0.00;0.62;0.00;0.00;0.62;25.30;15.80;;;24.10;26.50;;;;;;2232224;62;20356;-66
2024/03/31 00:14:53;0.00;0.00;0.62;0.00;0.00;0.62;19.77;15.90;;;24.10;26.60;;;;;;2231268;62;20448;-65
2024/03/31 00:17:19;0.00;0.00;0.62;0.00;0.00;0.62;21.80;15.73;;;24.10;26.60;;;;;;2231857;62;20554;-66
2024/03/31 00:19:48;0.00;0.00;0.62;0.00;0.00;0.62;21.10;15.70;;;24.10;26.60;;;;;;2232266;62;20364;-65
2024/03/31 00:22:14;0.00;0.00;0.62;0.00;0.00;0.62;20.17;16.60;;;24.10;26.50;;;;;;2231652;62;20364;-67
2024/03/31 00:24:44;0.00;0.00;0.62;0.00;0.00;0.62;22.10;15.10;;;24.10;26.50;;;;;;2231586;62;20961;-64
2024/03/31 00:27:11;0.00;0.00;0.62;0.00;0.00;0.62;19.60;16.40;;;24.10;26.50;;;;;;2232046;62;20435;-65
2024/03/31 00:29:38;0.00;0.00;0.62;0.00;0.00;0.62;20.77;15.87;;;24.10;26.50;;;;;;2231541;62;20829;-63
2024/03/31 00:32:06;0.00;0.00;0.62;0.00;0.00;0.62;19.30;15.53;;;24.10;26.50;;;;;;2232078;62;20902;-68
2024/03/31 00:34:33;0.00;0.00;0.62;0.00;0.00;0.62;20.47;15.60;;;24.10;26.50;;;;;;2232061;62;20420;-64
2024/03/31 00:37:00;0.00;0.00;0.62;0.00;0.00;0.62;24.37;16.50;;;24.10;26.50;;;;;;2231501;62;20400;-65
2024/03/31 00:39:27;0.00;0.00;0.62;0.00;0.00;0.62;23.03;16.33;;;24.10;26.50;;;;;;2232410;62;20789;-67
2024/03/31 00:41:54;0.00;0.00;0.62;0.00;0.00;0.62;19.87;15.77;;;24.10;26.50;;;;;;2232197;62;20443;-66
2024/03/31 00:44:21;0.00;0.00;0.62;0.00;0.00;0.62;17.47;15.10;;;24.10;26.50;;;;;;2231049;62;20448;-66
2024/03/31 00:46:47;0.00;0.00;0.62;0.00;0.00;0.62;20.77;15.70;;;24.10;26.50;;;;;;2232161;62;20414;-66
2024/03/31 00:49:15;0.00;0.00;0.62;0.00;0.00;0.62;18.47;15.50;;;24.10;26.50;;;;;;2232002;62;20914;-67
2024/03/31 00:51:42;0.00;0.00;0.62;0.00;0.00;0.62;19.50;14.67;;;24.10;26.50;;;;;;2231619;62;20365;-68
2024/03/31 00:54:10;0.00;0.00;0.62;0.00;0.00;0.62;19.83;15.57;;;24.10;26.50;;;;;;2231686;62;20364;-66
2024/03/31 00:56:36;0.00;0.00;0.62;0.00;0.00;0.62;25.50;16.17;;;24.10;26.50;;;;;;2231843;62;20415;-66
2024/03/31 00:59:03;0.00;0.00;0.62;0.00;0.00;0.62;19.77;15.30;;;24.10;26.50;;;;;;2230881;62;20376;-68
2024/03/31 01:01:29;0.00;0.00;0.62;0.00;0.00;0.62;23.93;15.80;;;24.10;26.50;;;;;;2231523;62;20360;-66
2024/03/31 01:03:56;0.00;0.00;0.62;0.00;0.00;0.62;21.00;16.60;;;24.10;26.50;;;;;;2232106;62;20356;-66
2024/03/31 01:06:24;0.00;0.00;0.62;0.00;0.00;0.62;17.50;14.97;;;24.00;27.00;;;;;;2230830;62;20794;-67
2024/03/31 01:08:52;0.00;0.00;0.62;0.00;0.00;0.62;19.70;16.47;;;24.00;26.50;;;;;;2231433;62;20787;-69
2024/03/31 01:11:21;0.00;0.00;0.62;0.00;0.00;0.62;20.07;15.83;;;24.00;26.40;;;;;;2232078;62;20368;-67
2024/03/31 01:13:48;0.00;0.00;0.62;0.00;0.00;0.62;22.53;17.40;;;24.00;26.40;;;;;;2231406;62;20372;-68
2024/03/31 01:16:16;0.00;0.00;0.62;0.00;0.00;0.62;18.10;16.20;;;24.00;26.40;;;;;;2231453;62;20420;-65
2024/03/31 01:18:43;0.00;0.00;0.62;0.00;0.00;0.62;20.13;15.77;;;24.10;26.50;;;;;;2231528;62;20389;-67
2024/03/31 01:21:12;0.00;0.00;0.62;0.00;0.00;0.62;20.43;16.87;;;24.10;26.50;;;;;;2231059;62;20360;-66
2024/03/31 01:23:50;0.00;0.00;0.62;0.00;0.00;0.62;19.43;16.33;;;24.00;26.40;;;;;;2232112;62;20890;-67
2024/03/31 01:26:16;0.00;0.00;0.62;0.00;0.00;0.62;19.27;16.13;;;24.00;26.50;;;;;;2231722;62;20357;-68
2024/03/31 01:28:42;0.00;0.00;0.62;0.00;0.00;0.62;20.30;15.53;;;24.00;26.40;;;;;;2230895;62;20392;-67
2024/03/31 01:31:09;0.00;0.00;0.62;0.00;0.00;0.62;22.50;17.70;;;24.00;26.40;;;;;;2232159;62;20431;-66
2024/03/31 01:33:35;0.00;0.00;0.62;0.00;0.00;0.62;20.30;16.33;;;24.00;26.50;;;;;;2231769;62;20879;-66
2024/03/31 01:36:02;0.00;0.00;0.62;0.00;0.00;0.62;18.60;15.53;;;24.00;26.40;;;;;;2230968;62;20508;-66
2024/03/31 01:38:28;0.00;0.00;0.62;0.00;0.00;0.62;19.27;17.17;;;24.00;26.40;;;;;;2231476;62;20969;-66
2024/03/31 01:40:56;0.00;0.00;0.62;0.00;0.00;0.62;22.00;17.80;;;24.00;26.40;;;;;;2231345;62;20443;-66
2024/03/31 01:43:22;0.00;0.00;0.62;0.00;0.00;0.62;19.17;15.30;;;24.00;26.40;;;;;;2231486;62;20365;-68
2024/03/31 01:45:49;0.00;0.00;0.62;0.00;0.00;0.62;25.33;18.70;;;24.00;26.40;;;;;;2232189;62;20352;-66
2024/03/31 01:48:16;0.00;0.00;0.62;0.00;0.00;0.62;21.33;16.73;;;24.00;26.40;;;;;;2231162;62;20380;-65
2024/03/31 01:50:42;0.00;0.00;0.62;0.00;0.00;0.62;21.83;16.83;;;24.00;26.40;;;;;;2230947;62;20384;-66
2024/03/31 01:53:08;0.00;0.00;0.62;0.00;0.00;0.62;19.47;17.30;;;24.00;26.40;;;;;;2227756;62;20754;-66
2024/03/31 01:55:34;0.00;0.00;0.62;0.00;0.00;0.62;21.73;16.07;;;24.00;26.40;;;;;;2231436;62;20368;-66
2024/03/31 01:58:02;0.00;0.00;0.62;0.00;0.00;0.62;22.30;16.37;;;24.00;26.40;;;;;;2230695;62;20436;-66
2024/03/31 02:00:28;0.00;0.00;0.62;0.00;0.00;0.62;19.93;15.03;;;24.00;26.40;;;;;;2230288;62;20795;-66
2024/03/31 02:02:55;0.00;0.00;0.62;0.00;0.00;0.62;19.33;16.63;;;24.00;26.40;;;;;;2231133;62;20356;-66
2024/03/31 02:05:22;0.00;0.00;0.62;0.00;0.00;0.62;22.13;17.83;;;24.00;26.40;;;;;;2231917;62;20364;-67
2024/03/31 02:07:49;0.00;0.00;0.62;0.00;0.00;0.62;22.03;16.10;;;24.00;26.40;;;;;;2230703;62;20911;-67
2024/03/31 02:10:15;0.00;0.00;0.62;0.00;0.00;0.62;25.03;17.27;;;24.00;26.40;;;;;;2231675;62;20411;-66
2024/03/31 02:12:42;0.00;0.00;0.62;0.00;0.00;0.62;20.90;16.07;;;24.00;26.40;;;;;;2231209;62;20746;-67
2024/03/31 02:15:09;0.00;0.00;0.62;0.00;0.00;0.62;17.27;15.40;;;24.00;26.40;;;;;;2231028;62;20444;-67
2024/03/31 02:17:36;0.00;0.00;0.62;0.00;0.00;0.62;18.40;15.90;;;24.00;26.90;;;;;;2231499;62;20448;-67
2024/03/31 02:20:06;0.00;0.00;0.62;0.00;0.00;0.62;19.93;16.20;;;24.00;26.40;;;;;;2231793;62;20360;-66
2024/03/31 02:22:33;0.00;0.00;0.62;0.00;0.00;0.62;19.47;16.80;;;24.00;26.40;;;;;;2230916;62;20447;-66
2024/03/31 02:24:59;0.00;0.00;0.62;0.00;0.00;0.62;21.87;17.73;;;24.00;26.40;;;;;;2231111;62;20360;-66
2024/03/31 02:27:25;0.00;0.00;0.62;0.00;0.00;0.62;20.97;16.40;;;24.00;26.40;;;;;;2230958;62;20379;-67
2024/03/31 02:29:52;0.00;0.00;0.62;0.00;0.00;0.62;18.13;15.60;;;24.00;26.40;;;;;;2230913;62;20356;-66
2024/03/31 02:32:20;0.00;0.00;0.62;0.00;0.00;0.62;17.40;14.97;;;24.00;26.40;;;;;;2231181;62;20359;-67
2024/03/31 02:34:46;0.00;0.00;0.62;0.00;0.00;0.62;21.43;16.03;;;24.00;26.40;;;;;;2231163;62;20917;-67
2024/03/31 02:37:16;0.00;0.00;0.62;0.00;0.00;0.62;20.53;16.20;;;23.90;26.30;;;;;;2230686;62;20950;-67
2024/03/31 02:39:43;0.00;0.00;0.62;0.00;0.00;0.62;16.77;14.97;;;24.00;26.40;;;;;;2231064;62;20392;-65
2024/03/31 02:42:09;0.00;0.00;0.62;0.00;0.00;0.62;18.17;16.30;;;24.00;26.40;;;;;;2231144;62;20356;-66
2024/03/31 02:44:36;0.00;0.00;0.62;0.00;0.00;0.62;18.27;15.77;;;24.00;26.40;;;;;;2230770;62;20854;-64
2024/03/31 02:47:03;0.00;0.00;0.62;0.00;0.00;0.62;20.10;16.13;;;24.00;26.40;;;;;;2231079;62;21001;-66
2024/03/31 02:49:32;0.00;0.00;0.62;0.00;0.00;0.62;17.80;15.90;;;24.00;26.40;;;;;;2231079;62;20366;-66
2024/03/31 02:51:58;0.00;0.00;0.62;0.00;0.00;0.62;19.03;15.03;;;23.90;26.30;;;;;;2230989;62;20458;-63
2024/03/31 02:54:24;0.00;0.00;0.62;0.00;0.00;0.62;19.50;15.60;;;23.90;26.30;;;;;;2231141;62;20782;-66
2024/03/31 02:56:50;0.00;0.00;0.62;0.00;0.00;0.62;20.13;17.03;;;23.90;26.30;;;;;;2231554;62;20388;-66
2024/03/31 02:59:17;0.00;0.00;0.62;0.00;0.00;0.62;20.73;15.80;;;23.90;26.30;;;;;;2231881;62;20867;-65
2024/03/31 03:01:43;0.00;0.00;0.62;0.00;0.00;0.62;16.83;15.03;;;23.90;26.30;;;;;;2230836;62;20420;-66
2024/03/31 03:04:09;0.00;0.00;0.62;0.00;0.00;0.62;19.70;15.57;;;23.90;26.30;;;;;;2231130;62;20372;-66
2024/03/31 03:06:36;0.00;0.00;0.62;0.00;0.00;0.62;18.77;14.07;;;23.90;26.30;;;;;;2231696;62;20371;-66
2024/03/31 03:09:04;0.00;0.00;0.62;0.00;0.00;0.62;17.00;15.27;;;23.90;26.30;;;;;;2231454;62;20395;-65
2024/03/31 03:11:30;0.00;0.00;0.62;0.00;0.00;0.62;21.23;16.53;;;23.90;26.30;;;;;;2231801;62;20369;-67
2024/03/31 03:13:57;0.00;0.00;0.62;0.00;0.00;0.62;16.87;15.13;;;23.90;26.30;;;;;;2232037;62;20774;-66
2024/03/31 03:16:27;0.00;0.00;0.62;0.00;0.00;0.62;19.87;15.37;;;23.90;26.30;;;;;;2231425;62;20392;-66
2024/03/31 03:18:53;0.00;0.00;0.62;0.00;0.00;0.62;19.20;14.73;;;23.90;26.30;;;;;;2231810;62;20360;-67
2024/03/31 03:21:19;0.00;0.00;0.62;0.00;0.00;0.62;18.90;15.53;;;23.90;26.30;;;;;;2231832;62;20770;-66
2024/03/31 03:23:47;0.00;0.00;0.62;0.00;0.00;0.62;18.00;14.20;;;23.90;26.30;;;;;;2232002;62;20648;-67
2024/03/31 03:26:13;0.00;0.00;0.62;0.00;0.00;0.62;17.70;14.07;;;23.90;26.30;;;;;;2231593;62;20357;-66
2024/03/31 03:28:40;0.00;0.00;0.62;0.00;0.00;0.62;18.20;14.57;;;23.90;26.30;;;;;;2231991;62;20391;-66
2024/03/31 03:31:07;0.00;0.00;0.62;0.00;0.00;0.62;16.43;13.93;;;23.90;26.30;;;;;;2231586;62;20361;-66
2024/03/31 03:33:33;0.00;0.00;0.62;0.00;0.00;0.62;15.47;13.80;;;23.90;26.30;;;;;;2231631;62;20419;-66
2024/03/31 03:36:03;0.00;0.00;0.62;0.00;0.00;0.62;16.20;14.60;;;23.90;26.30;;;;;;2231842;62;20359;-66
2024/03/31 03:38:30;0.00;0.00;0.62;0.00;0.00;0.62;15.97;14.27;;;23.90;26.30;;;;;;2231541;62;20388;-66
2024/03/31 03:40:57;0.00;0.00;0.62;0.00;0.00;0.62;17.60;14.30;;;23.90;26.30;;;;;;2231515;62;20770;-64
2024/03/31 03:43:25;0.00;0.00;0.62;0.00;0.00;0.62;17.10;14.40;;;23.80;26.80;;;;;;2231765;62;20372;-66
2024/03/31 03:45:57;0.00;0.00;0.62;0.00;0.00;0.62;16.20;14.13;;;23.90;26.30;;;;;;2231598;62;20368;-68
2024/03/31 03:48:23;0.00;0.00;0.62;0.00;0.00;0.62;15.97;14.37;;;23.80;26.30;;;;;;2231911;62;20376;-66
2024/03/31 03:50:49;0.00;0.00;0.62;0.00;0.00;0.62;17.43;14.70;;;23.80;26.30;;;;;;2231765;62;20360;-66
2024/03/31 03:53:15;0.00;0.00;0.62;0.00;0.00;0.62;18.23;14.50;;;23.90;26.30;;;;;;2231739;62;20847;-66
2024/03/31 03:55:42;0.00;0.00;0.62;0.00;0.00;0.62;16.60;14.63;;;23.80;26.30;;;;;;2231576;62;20367;-66
2024/03/31 03:58:10;0.00;0.00;0.62;0.00;0.00;0.62;15.03;13.60;;;23.80;26.30;;;;;;2231607;62;20420;-67
2024/03/31 04:00:39;0.00;0.00;0.62;0.00;0.00;0.62;18.07;14.57;;;23.80;26.30;;;;;;2231440;62;20387;-67
2024/03/31 04:03:05;0.00;0.00;0.62;0.00;0.00;0.62;14.27;12.73;;;23.80;26.30;;;;;;2232004;62;20357;-67
2024/03/31 04:05:32;0.00;0.00;0.62;0.00;0.00;0.62;17.50;14.10;;;23.80;26.30;;;;;;2231886;62;20443;-67
2024/03/31 04:07:58;0.00;0.00;0.62;0.00;0.00;0.62;15.60;14.10;;;23.80;26.30;;;;;;2231729;62;20430;-67
2024/03/31 04:10:24;0.00;0.00;0.62;0.00;0.00;0.62;15.93;14.23;;;23.80;26.30;;;;;;2231404;62;20452;-67
2024/03/31 04:12:50;0.00;0.00;0.62;0.00;0.00;0.62;16.00;13.60;;;23.80;26.30;;;;;;2231748;62;20353;-67
2024/03/31 04:15:18;0.00;0.00;0.62;0.00;0.00;0.62;15.77;14.20;;;23.80;26.30;;;;;;2231768;62;20933;-66
2024/03/31 04:17:45;0.00;0.00;0.62;0.00;0.00;0.62;15.70;14.00;;;23.80;26.30;;;;;;2231207;62;20399;-66
2024/03/31 04:20:11;0.00;0.00;0.62;0.00;0.00;0.62;15.77;14.10;;;23.80;26.30;;;;;;2231764;62;20367;-67
2024/03/31 04:22:37;0.00;0.00;0.62;0.00;0.00;0.62;14.77;12.70;;;23.80;26.30;;;;;;2232008;62;20364;-66
2024/03/31 04:25:04;0.00;0.00;0.62;0.00;0.00;0.62;15.43;12.80;;;23.80;26.30;;;;;;2231942;62;20360;-63
2024/03/31 04:27:30;0.00;0.00;0.62;0.00;0.00;0.62;14.80;13.23;;;23.80;26.30;;;;;;2231473;62;20376;-65
2024/03/31 04:29:58;0.00;0.00;0.62;0.00;0.00;0.62;15.33;12.80;;;23.80;26.30;;;;;;2231286;62;20371;-67
2024/03/31 04:32:25;0.00;0.00;0.62;0.00;0.00;0.62;16.80;13.97;;;23.80;26.80;;;;;;2228284;62;20938;-66
2024/03/31 04:34:52;0.00;0.00;0.62;0.00;0.00;0.62;17.83;13.50;;;23.80;26.30;;;;;;2232243;62;20868;-66
2024/03/31 04:37:20;0.00;0.00;0.62;0.00;0.00;0.62;14.00;12.23;;;23.80;26.30;;;;;;2231524;62;20482;-65
2024/03/31 04:39:49;0.00;0.00;0.62;0.00;0.00;0.62;16.13;13.80;;;23.80;26.30;;;;;;2231499;62;20392;-65
2024/03/31 04:42:17;0.00;0.00;0.62;0.00;0.00;0.62;14.23;12.73;;;23.80;26.30;;;;;;2231606;62;20360;-65
2024/03/31 04:44:43;0.00;0.00;0.62;0.00;0.00;0.62;14.23;12.83;;;23.80;26.30;;;;;;2231574;62;20375;-65
2024/03/31 04:47:09;0.00;0.00;0.62;0.00;0.00;0.62;15.23;13.63;;;23.80;26.30;;;;;;2231404;62;20377;-65
2024/03/31 04:49:42;0.00;0.00;0.62;0.00;0.00;0.62;14.60;11.93;;;23.80;26.30;;;;;;2231404;62;20352;-65
2024/03/31 04:52:09;0.00;0.00;0.62;0.00;0.00;0.62;17.50;13.57;;;23.80;26.30;;;;;;2231170;62;20371;-65
2024/03/31 04:54:37;0.00;0.00;0.62;0.00;0.00;0.62;14.30;12.90;;;23.70;26.20;;;;;;2231551;62;20946;-65
2024/03/31 04:57:04;0.00;0.00;0.62;0.00;0.00;0.62;15.60;13.47;;;23.80;26.30;;;;;;2231676;62;20392;-65
2024/03/31 04:59:30;0.00;0.00;0.62;0.00;0.00;0.62;13.83;12.33;;;23.80;26.30;;;;;;2231131;62;20360;-65
2024/03/31 05:01:56;0.00;0.00;0.62;0.00;0.00;0.62;16.13;13.33;;;23.70;26.20;;;;;;2231515;62;20875;-65
2024/03/31 05:04:23;0.00;0.00;0.62;0.00;0.00;0.62;15.20;13.70;;;23.80;26.30;;;;;;2231968;62;20396;-65
2024/03/31 05:06:50;0.00;0.00;0.62;0.00;0.00;0.62;13.20;11.90;;;23.70;26.20;;;;;;2231415;62;20380;-66
2024/03/31 05:09:16;0.00;0.00;0.62;0.00;0.00;0.62;14.47;13.00;;;23.70;26.20;;;;;;2231933;62;20376;-64
2024/03/31 05:11:43;0.00;0.00;0.62;0.00;0.00;0.62;15.00;12.60;;;23.70;26.20;;;;;;2231248;62;20929;-64
2024/03/31 05:14:09;0.00;0.00;0.62;0.00;0.00;0.62;14.83;12.47;;;23.70;26.20;;;;;;2231128;62;20452;-64
2024/03/31 05:16:37;0.00;0.00;0.62;0.00;0.00;0.62;14.70;12.90;;;23.70;26.20;;;;;;2231316;62;20803;-64
2024/03/31 05:19:04;0.00;0.00;0.62;0.00;0.00;0.62;13.07;11.67;;;23.70;26.20;;;;;;2231377;62;20380;-64
2024/03/31 05:21:31;0.00;0.00;0.62;0.00;0.00;0.62;14.33;12.93;;;23.70;26.20;;;;;;2231220;62;20372;-64
2024/03/31 05:23:58;0.00;0.00;0.62;0.00;0.00;0.62;18.77;14.00;;;23.70;26.20;;;;;;2231943;62;20364;-66
2024/03/31 05:26:30;0.00;0.00;0.62;0.00;0.00;0.62;13.57;12.17;;;23.70;26.20;;;;;;2231069;62;20399;-64
2024/03/31 05:28:56;0.00;0.00;0.62;0.00;0.00;0.62;14.93;12.20;;;23.70;26.20;;;;;;2230763;62;20782;-63
2024/03/31 05:31:23;0.00;0.00;0.62;0.00;0.00;0.62;14.47;12.97;;;23.70;26.20;;;;;;2231343;62;20747;-65
2024/03/31 05:34:15;0.00;0.00;0.62;0.00;0.00;0.62;15.00;12.97;;;23.70;26.20;;;;;;2233023;62;20376;-65
2024/03/31 05:36:42;0.00;0.00;0.62;0.00;0.00;0.62;16.23;11.90;;;23.70;26.20;;;;;;2231372;62;20392;-64
2024/03/31 05:39:10;0.00;0.00;0.62;0.00;0.00;0.62;15.13;12.20;;;23.70;26.30;;;;;;2231185;62;20371;-64
2024/03/31 05:41:36;0.00;0.00;0.62;0.00;0.00;0.62;14.90;13.07;;;23.70;26.80;;;;;;2231546;62;20368;-63
2024/03/31 05:44:03;0.00;0.00;0.62;0.00;0.00;0.62;13.23;11.77;;;23.70;26.30;;;;;;2231060;62;20419;-64
2024/03/31 05:46:30;0.00;0.00;0.62;0.00;0.00;0.62;15.10;13.60;;;23.70;26.30;;;;;;2230970;62;20360;-64
2024/03/31 05:48:57;0.00;0.00;0.62;0.00;0.00;0.62;15.80;12.67;;;23.70;26.30;;;;;;2231345;62;20829;-64
2024/03/31 05:51:29;0.00;0.00;0.62;0.00;0.00;0.62;13.77;12.20;;;23.70;26.20;;;;;;2231083;62;20360;-64
2024/03/31 05:53:55;0.00;0.00;0.62;0.00;0.00;0.62;12.73;11.50;;;23.70;26.30;;;;;;2231133;62;20360;-65
2024/03/31 05:56:23;0.00;0.00;0.62;0.00;0.00;0.62;13.57;12.17;;;23.70;26.30;;;;;;2231128;62;20419;-65
2024/03/31 05:58:50;0.00;0.00;0.62;0.00;0.00;0.62;16.83;11.70;;;23.70;26.30;;;;;;2231656;62;20782;-65
2024/03/31 06:01:19;0.00;0.00;0.62;0.00;0.00;0.62;14.10;12.70;;;23.70;26.30;;;;;;2231109;62;20413;-66
2024/03/31 06:03:45;0.00;0.00;0.62;0.00;0.00;0.62;15.17;13.67;;;23.70;26.30;;;;;;2231231;62;20363;-65
2024/03/31 06:06:11;0.00;0.00;0.62;0.00;0.00;0.62;15.43;12.37;;;23.70;26.30;;;;;;2230953;62;20501;-64
2024/03/31 06:08:39;0.00;0.00;0.62;0.00;0.00;0.62;14.10;12.70;;;23.70;26.30;;;;;;2230975;62;20802;-64
2024/03/31 06:11:05;0.00;0.00;0.62;0.00;0.00;0.62;15.53;12.97;;;23.70;26.30;;;;;;2231437;62;20363;-65
2024/03/31 06:13:33;0.00;0.00;0.62;0.00;0.00;0.62;15.43;13.77;;;23.70;26.80;;;;;;2230984;62;20364;-64
2024/03/31 06:16:01;0.00;0.00;0.62;0.00;0.00;0.62;13.53;12.10;;;23.70;26.30;;;;;;2231026;62;20376;-64
2024/03/31 06:18:27;0.00;0.00;0.62;0.00;0.00;0.62;13.67;12.23;;;23.70;26.30;;;;;;2231115;62;20389;-66
2024/03/31 06:20:54;0.00;0.00;0.62;0.00;0.00;0.62;13.57;12.10;;;23.70;26.30;;;;;;2230998;62;20360;-65
2024/03/31 06:23:21;0.00;0.00;0.62;0.00;0.00;0.62;14.83;13.30;;;23.70;26.30;;;;;;2231144;62;20367;-65
2024/03/31 06:25:56;0.00;0.00;0.62;0.00;0.00;0.62;15.77;14.03;;;23.60;26.20;;;;;;2231197;62;20356;-63
2024/03/31 06:28:22;0.00;0.00;0.62;0.00;0.00;0.62;15.07;13.50;;;23.70;26.30;;;;;;2227743;62;20864;-64
2024/03/31 06:30:50;0.00;0.00;0.62;0.00;0.00;0.62;15.67;13.33;;;23.70;26.30;;;;;;2227786;62;20905;-64
2024/03/31 06:33:17;0.00;0.00;0.62;0.00;0.00;0.62;14.60;12.57;;;23.70;26.30;;;;;;2231389;62;20373;-65
2024/03/31 06:35:43;0.00;0.00;0.62;0.00;0.00;0.62;15.23;13.37;;;23.60;26.20;;;;;;2230832;62;20368;-65
2024/03/31 06:38:11;0.00;0.00;0.62;0.00;0.00;0.62;14.23;12.83;;;23.60;26.20;;;;;;2230926;62;20994;-65
2024/03/31 06:40:37;0.00;0.00;0.62;0.00;0.00;0.62;13.83;12.43;;;23.60;26.20;;;;;;2231677;62;20428;-65
2024/03/31 06:43:05;0.00;0.00;0.62;0.00;0.00;0.62;15.20;13.40;;;23.70;26.30;;;;;;2231554;62;20458;-65
2024/03/31 06:45:32;0.00;0.00;0.62;0.00;0.00;0.62;14.30;12.33;;;23.60;26.30;;;;;;2231807;62;20451;-65
2024/03/31 06:48:00;0.00;0.00;0.62;0.00;0.00;0.62;15.57;13.67;;;23.60;26.20;;;;;;2231929;62;20380;-67
2024/03/31 06:50:26;0.00;0.00;0.62;0.00;0.00;0.62;14.47;13.07;;;23.60;26.30;;;;;;2231680;62;20376;-67
2024/03/31 06:52:52;0.00;0.00;0.62;0.00;0.00;0.62;15.20;13.20;;;23.60;26.20;;;;;;2231835;62;20766;-66
2024/03/31 06:55:18;0.00;0.00;0.62;0.00;0.00;0.62;14.77;13.20;;;23.60;26.20;;;;;;2231974;62;20364;-66
2024/03/31 06:57:45;0.00;0.00;0.62;0.00;0.00;0.62;17.43;14.37;;;23.60;26.30;;;;;;2231282;62;20388;-66
2024/03/31 07:00:14;0.00;0.00;0.62;0.00;0.00;0.62;15.60;13.90;;;23.60;26.30;;;;;;2231881;62;20364;-67
2024/03/31 07:02:40;0.00;0.00;0.62;0.00;0.00;0.62;14.27;12.87;;;23.60;26.30;;;;;;2232504;62;20412;-66
2024/03/31 07:05:08;0.00;0.00;0.62;0.00;0.00;0.62;16.40;14.70;;;23.60;26.20;;;;;;2231447;62;20453;-65
2024/03/31 07:07:34;0.00;0.00;0.62;0.00;0.00;0.62;15.63;13.70;;;23.60;26.30;;;;;;2228359;62;20490;-65
2024/03/31 07:10:00;0.00;0.00;0.62;0.00;0.00;0.62;16.53;14.40;;;23.60;26.30;;;;;;2232348;62;20452;-65
2024/03/31 07:12:26;0.00;0.00;0.62;0.00;0.00;0.62;15.90;14.40;;;23.60;26.30;;;;;;2231535;62;20388;-66
2024/03/31 07:14:54;0.00;0.00;0.62;0.00;0.00;0.62;14.73;13.23;;;23.60;26.30;;;;;;2231745;62;20366;-65
2024/03/31 07:17:21;0.00;0.00;0.62;0.00;0.00;0.62;16.83;14.13;;;23.60;26.30;;;;;;2231582;62;20392;-66
2024/03/31 07:19:47;0.00;0.00;0.62;0.00;0.00;0.62;16.53;14.33;;;23.60;26.30;;;;;;2231512;62;20914;-66
2024/03/31 07:22:15;0.00;0.00;0.62;0.00;0.00;0.62;16.60;14.93;;;23.60;26.80;;;;;;2232013;62;20821;-66
2024/03/31 07:24:41;0.00;0.00;0.62;0.00;0.00;0.62;15.70;14.10;;;23.60;26.30;;;;;;2231744;62;20364;-66
2024/03/31 07:27:08;0.00;0.00;0.62;0.00;0.00;0.62;16.00;14.30;;;23.60;26.30;;;;;;2231738;62;20372;-65
2024/03/31 07:29:35;0.00;0.00;0.62;0.00;0.00;0.62;16.77;15.10;;;23.60;26.30;;;;;;2231597;62;20777;-66
2024/03/31 07:32:01;0.00;0.00;0.62;0.00;0.00;0.62;16.57;14.87;;;23.60;26.30;;;;;;2231837;62;20939;-66
2024/03/31 07:34:27;0.00;0.00;0.62;0.00;0.00;0.62;14.80;13.30;;;23.60;26.30;;;;;;2231382;62;20455;-66
2024/03/31 07:36:53;0.00;0.00;0.62;0.00;0.00;0.62;16.20;14.60;;;23.60;26.30;;;;;;2228244;62;20380;-65
2024/03/31 07:39:20;0.00;0.00;0.62;0.00;0.00;0.62;17.00;15.40;;;23.60;26.80;;;;;;2232323;62;20923;-65
2024/03/31 07:41:47;0.00;0.00;0.62;0.00;0.00;0.62;16.23;14.63;;;23.60;26.30;;;;;;2232169;62;20703;-66
2024/03/31 07:44:15;0.00;0.00;0.62;0.00;0.00;0.62;16.23;14.73;;;23.60;26.60;;;;;;2232275;62;20360;-66
2024/03/31 07:46:41;0.00;0.00;0.62;0.00;0.00;0.62;17.50;15.67;;;23.60;26.30;;;;;;2232054;62;20412;-66
2024/03/31 07:49:07;0.00;0.00;0.62;0.00;0.00;0.62;16.60;14.87;;;23.60;26.30;;;;;;2232042;62;20360;-64
2024/03/31 07:51:33;0.00;0.00;0.62;0.00;0.00;0.62;18.30;15.37;;;23.60;26.30;;;;;;2232079;62;20376;-65
2024/03/31 07:53:59;0.00;0.00;0.62;0.00;0.00;0.62;16.83;15.13;;;23.60;26.30;;;;;;2232246;62;20946;-64
2024/03/31 07:56:27;0.00;0.00;0.62;0.00;0.00;0.62;17.83;16.07;;;23.60;26.30;;;;;;2231543;62;20424;-65
2024/03/31 07:58:53;0.00;0.00;0.62;0.00;0.00;0.62;17.13;15.33;;;23.60;26.30;;;;;;2232252;62;20378;-66
2024/03/31 08:01:19;0.00;0.00;0.62;0.00;0.00;0.62;17.90;16.03;;;23.60;26.30;;;;;;2232195;62;20356;-66
2024/03/31 08:03:45;0.00;0.00;0.62;0.00;0.00;0.62;17.27;15.57;;;23.60;26.30;;;;;;2231899;62;20445;-65
2024/03/31 08:06:12;0.00;0.00;0.62;0.00;0.00;0.62;17.27;15.33;;;23.60;26.40;;;;;;2232013;62;20364;-66
2024/03/31 08:08:38;0.00;0.00;0.62;0.00;0.00;0.62;17.80;16.10;;;23.60;26.40;;;;;;2231945;62;20427;-65
2024/03/31 08:11:04;0.00;0.00;0.62;0.00;0.00;0.62;17.13;15.33;;;23.60;26.40;;;;;;2231830;62;20763;-66
2024/03/31 08:13:33;0.00;0.00;0.62;0.00;0.00;0.62;18.67;16.20;;;23.60;26.40;;;;;;2232044;62;20946;-65
2024/03/31 08:15:59;0.00;0.00;0.62;0.00;0.00;0.62;15.77;14.27;;;23.60;26.40;;;;;;2232145;62;20368;-66
2024/03/31 08:18:25;0.00;0.00;0.62;0.00;0.00;0.62;18.30;16.50;;;23.60;26.40;;;;;;2231848;62;20393;-66
2024/03/31 08:20:51;0.00;0.00;0.62;0.00;0.00;0.62;17.40;15.60;;;23.60;26.40;;;;;;2232197;62;20360;-66
2024/03/31 08:23:17;0.00;0.00;0.62;0.00;0.00;0.62;16.60;15.00;;;23.60;26.40;;;;;;2232051;62;20375;-65
2024/03/31 08:25:50;0.00;0.00;0.62;0.00;0.00;0.62;19.77;16.40;;;23.60;26.40;;;;;;2231712;62;20769;-65
2024/03/31 08:28:17;0.00;0.00;0.62;0.00;0.00;0.62;17.27;15.57;;;23.60;26.40;;;;;;2232002;62;20407;-65
2024/03/31 08:30:46;0.00;0.00;0.62;0.00;0.00;0.62;17.03;15.33;;;23.60;26.40;;;;;;2232019;62;20368;-66
2024/03/31 08:33:13;0.00;0.00;0.62;0.00;0.00;0.62;17.13;15.43;;;23.60;26.40;;;;;;2231839;62;20376;-66
2024/03/31 08:35:39;0.00;0.00;0.62;0.00;0.00;0.62;17.80;15.00;;;23.60;26.40;;;;;;2231989;62;20411;-66
2024/03/31 08:38:05;0.00;0.00;0.62;0.00;0.00;0.62;18.07;16.10;;;23.60;26.40;;;;;;2231927;62;20385;-67
2024/03/31 08:40:35;0.00;0.00;0.62;0.00;0.00;0.62;16.77;15.17;;;23.60;26.40;;;;;;2232006;62;20361;-66
2024/03/31 08:43:04;0.00;0.00;0.62;0.00;0.00;0.62;17.27;15.60;;;23.60;26.40;;;;;;2232160;62;20371;-66
2024/03/31 08:45:32;0.00;0.00;0.62;0.00;0.00;0.62;17.33;15.63;;;23.60;26.50;;;;;;2232070;62;20357;-64
2024/03/31 08:48:01;0.00;0.00;0.62;0.00;0.00;0.62;17.67;15.97;;;23.60;26.40;;;;;;2231551;62;20945;-67
2024/03/31 08:50:27;0.00;0.00;0.62;0.00;0.00;0.62;17.93;16.00;;;23.50;26.40;;;;;;2232006;62;20368;-67
2024/03/31 08:52:54;0.00;0.00;0.62;0.00;0.00;0.62;17.57;15.83;;;23.60;26.50;;;;;;2232084;62;20444;-66
2024/03/31 08:55:20;0.00;0.00;0.62;0.00;0.00;0.62;17.90;16.10;;;23.60;26.50;;;;;;2231756;62;20396;-66
2024/03/31 08:57:47;0.00;0.00;0.62;0.00;0.00;0.62;18.60;16.80;;;23.60;26.50;;;;;;2231797;62;20524;-65
2024/03/31 09:00:14;0.00;0.00;0.62;0.00;0.00;0.62;19.03;17.17;;;23.60;26.50;;;;;;2232024;62;20375;-65
2024/03/31 09:02:40;0.00;0.00;0.62;0.00;0.00;0.62;18.73;16.93;;;23.60;26.50;;;;;;2231803;62;20387;-65
2024/03/31 09:05:08;0.00;0.00;0.62;0.00;0.00;0.62;17.03;15.40;;;23.60;26.50;;;;;;2231934;62;20367;-66
2024/03/31 09:07:35;0.00;0.00;0.62;0.00;0.00;0.62;20.40;18.30;;;23.60;26.50;;;;;;2231872;62;20400;-66
2024/03/31 09:10:04;0.00;0.00;0.62;0.00;0.00;0.62;18.90;16.97;;;23.60;26.50;;;;;;2231726;62;20899;-65
2024/03/31 09:12:31;0.00;0.00;0.62;0.00;0.00;0.62;19.57;17.77;;;23.50;26.50;;;;;;2232024;62;20364;-66
2024/03/31 09:14:57;0.00;0.00;0.62;0.00;0.00;0.62;20.47;18.60;;;23.60;26.50;;;;;;2232074;62;20869;-65
2024/03/31 09:17:23;0.00;0.00;0.62;0.00;0.00;0.62;18.93;17.13;;;23.60;26.50;;;;;;2231402;62;20475;-66
2024/03/31 09:19:50;0.00;0.00;0.62;0.00;0.00;0.62;21.10;19.10;;;23.50;26.50;;;;;;2231928;62;20364;-66
2024/03/31 09:22:17;0.00;0.00;0.62;0.00;0.00;0.62;20.50;18.70;;;23.60;26.50;;;;;;2232037;62;20446;-66
2024/03/31 09:24:44;0.00;0.00;0.62;0.00;0.00;0.62;19.73;17.80;;;23.60;26.50;;;;;;2231550;62;20375;-66
2024/03/31 09:27:10;0.00;0.00;0.62;0.00;0.00;0.62;20.13;18.03;;;23.60;26.60;;;;;;2231750;62;20372;-66
2024/03/31 09:29:41;0.00;0.00;0.62;0.00;0.00;0.62;19.83;18.00;;;23.60;26.60;;;;;;2231774;62;20363;-66